Time;durP1;ratioP1;P1;durP2;ratioP2;P2;SDS_P1;SDS_P2;PMS_P1;PMS_P2;Temp;Humidity;BMP_temperature;BMP_pressure;BME280_temperature;BME280_humidity;BME280_pressure;Samples;Min_cycle;Max_cycle;Signal;HPM_P1;HPM_P2
2022/12/09 00:00:20;;;;;;;52.47;32.37;;;-3.00;99.90;-4.00;99452;;;;572693;247;24089;-76
2022/12/09 00:02:48;;;;;;;52.90;30.77;;;-3.00;99.90;-4.10;99454;;;;571907;247;24062;-76
2022/12/09 00:05:16;;;;;;;49.30;30.33;;;-3.00;99.90;-4.10;99457;;;;572120;247;24086;-74
2022/12/09 00:07:43;;;;;;;46.20;29.10;;;-3.00;99.90;-4.10;99460;;;;572098;247;24053;-75
2022/12/09 00:10:11;;;;;;;47.17;29.70;;;-3.00;99.90;-4.10;99463;;;;571714;247;24044;-75
2022/12/09 00:12:39;;;;;;;40.27;27.40;;;-3.00;99.90;-4.10;99464;;;;572409;243;24065;-74
2022/12/09 00:15:10;;;;;;;43.93;27.30;;;-3.00;99.90;-4.10;99466;;;;573112;247;24049;-79
2022/12/09 00:17:35;;;;;;;48.97;28.17;;;-3.00;99.90;-4.10;99465;;;;581534;247;24065;-79
2022/12/09 00:20:03;;;;;;;46.57;28.63;;;-3.00;99.90;-4.10;99473;;;;573902;246;24166;-80
2022/12/09 00:22:31;;;;;;;43.40;27.30;;;-3.00;99.90;-4.10;99484;;;;574167;246;24049;-81
2022/12/09 00:24:59;;;;;;;43.00;26.57;;;-3.00;99.90;-4.10;99480;;;;574027;247;24048;-78
2022/12/09 00:27:27;;;;;;;45.47;27.00;;;-3.10;99.90;-4.10;99469;;;;573936;247;24187;-77
2022/12/09 00:29:55;;;;;;;45.87;26.97;;;-3.10;99.90;-4.10;99474;;;;573501;247;24101;-81
2022/12/09 00:32:23;;;;;;;47.30;28.00;;;-3.10;99.90;-4.20;99471;;;;573101;247;24101;-73
2022/12/09 00:34:52;;;;;;;48.43;26.63;;;-3.20;99.90;-4.20;99477;;;;573021;247;24035;-74
2022/12/09 00:37:21;;;;;;;45.50;26.67;;;-3.20;99.90;-4.20;99483;;;;572423;247;24047;-72
2022/12/09 00:39:49;;;;;;;47.00;28.33;;;-3.20;99.90;-4.20;99486;;;;572203;247;24049;-76
2022/12/09 00:42:19;;;;;;;46.90;27.30;;;-3.20;99.90;-4.20;99483;;;;572235;247;24072;-73
2022/12/09 00:44:44;;;;;;;47.10;26.73;;;-3.10;99.90;-4.30;99479;;;;571837;247;24065;-73
2022/12/09 00:47:12;;;;;;;41.47;25.40;;;-3.20;99.90;-4.30;99489;;;;571757;247;24095;-74
2022/12/09 00:49:40;;;;;;;46.80;25.70;;;-3.20;99.90;-4.30;99481;;;;571958;247;24110;-73
2022/12/09 00:52:08;;;;;;;40.63;23.90;;;-3.20;99.90;-4.30;99489;;;;571862;247;24160;-72
2022/12/09 00:54:36;;;;;;;39.23;23.50;;;-3.20;99.90;-4.30;99488;;;;572074;247;24060;-75
2022/12/09 00:57:04;;;;;;;46.63;23.20;;;-3.30;99.90;-4.30;99492;;;;571749;247;24128;-72
2022/12/09 00:59:32;;;;;;;39.67;22.43;;;-3.20;99.90;-4.30;99492;;;;571584;247;24053;-73
2022/12/09 01:02:00;;;;;;;47.57;24.03;;;-3.30;99.90;-4.40;99495;;;;571692;247;24053;-75
2022/12/09 01:04:28;;;;;;;38.77;22.70;;;-3.30;99.90;-4.40;99490;;;;571531;247;24188;-74
2022/12/09 01:06:56;;;;;;;42.60;23.83;;;-3.30;99.90;-4.50;99496;;;;571611;247;24050;-75
2022/12/09 01:09:25;;;;;;;38.07;24.07;;;-3.40;99.90;-4.50;99492;;;;571563;247;24082;-73
2022/12/09 01:11:53;;;;;;;32.77;21.07;;;-3.40;99.90;-4.60;99487;;;;571506;247;24114;-74
2022/12/09 01:14:21;;;;;;;38.43;23.47;;;-3.50;99.90;-4.70;99494;;;;572251;247;24133;-73
2022/12/09 01:16:49;;;;;;;42.90;24.92;;;-3.60;99.90;-4.70;99489;;;;567207;247;35367;-73
2022/12/09 01:19:17;;;;;;;46.83;26.17;;;-3.60;99.90;-4.70;99482;;;;572258;247;24201;-73
2022/12/09 01:21:44;;;;;;;44.30;25.80;;;-3.60;99.90;-4.70;99496;;;;572006;247;24102;-74
2022/12/09 01:24:16;;;;;;;44.80;25.87;;;-3.60;99.90;-4.70;99493;;;;572347;247;24093;-73
2022/12/09 01:26:40;;;;;;;43.63;25.50;;;-3.70;99.90;-4.80;99492;;;;572036;247;24064;-74
2022/12/09 01:29:08;;;;;;;48.30;25.27;;;-3.70;99.90;-4.80;99501;;;;571646;247;24125;-74
2022/12/09 01:31:36;;;;;;;41.40;24.33;;;-3.70;99.90;-4.90;99486;;;;572982;246;24106;-73
2022/12/09 01:34:04;;;;;;;36.67;22.17;;;-3.80;99.90;-4.90;99494;;;;573023;246;24107;-74
2022/12/09 01:36:32;;;;;;;38.07;22.37;;;-3.80;99.90;-5.00;99498;;;;572618;247;24086;-73
2022/12/09 01:39:00;;;;;;;36.50;23.20;;;-3.90;99.90;-5.10;99498;;;;572616;247;24068;-74
2022/12/09 01:41:31;;;;;;;35.10;21.20;;;-3.90;99.90;-5.10;99492;;;;572422;247;24082;-71
2022/12/09 01:44:17;;;;;;;33.50;19.83;;;-4.00;99.90;-5.10;99493;;;;573068;247;24059;-71
2022/12/09 01:46:48;;;;;;;31.63;20.23;;;-4.00;99.90;-5.30;99498;;;;573520;247;24183;-72
2022/12/09 01:49:16;;;;;;;34.30;20.07;;;-4.10;99.90;-5.30;99498;;;;572800;247;24084;-75
2022/12/09 01:51:43;;;;;;;34.80;20.07;;;-4.10;99.90;-5.40;99514;;;;572652;247;25180;-73
2022/12/09 01:54:11;;;;;;;33.40;20.33;;;-4.20;99.90;-5.30;99496;;;;572872;247;24084;-72
2022/12/09 01:56:41;;;;;;;34.63;20.70;;;-4.20;99.90;-5.40;99494;;;;572570;247;24100;-72
2022/12/09 01:59:09;;;;;;;32.20;19.53;;;-4.30;99.90;-5.40;99497;;;;581102;247;24066;-72
2022/12/09 02:01:38;;;;;;;32.17;18.73;;;-4.30;99.90;-5.40;99495;;;;572199;247;24114;-73
2022/12/09 02:04:06;;;;;;;27.77;18.60;;;-4.30;99.90;-5.60;99486;;;;572200;247;24089;-72
2022/12/09 02:06:36;;;;;;;30.93;18.43;;;-4.40;99.90;-5.70;99487;;;;581296;247;24182;-76
2022/12/09 02:09:08;;;;;;;28.77;17.20;;;-4.50;99.90;-5.70;99499;;;;572566;247;24113;-75
2022/12/09 02:11:41;;;;;;;28.13;16.23;;;-4.60;99.90;-5.80;99487;;;;562314;255;24174;-72
2022/12/09 02:14:18;;;;;;;29.23;16.73;;;-4.60;99.90;-5.80;99482;;;;572328;247;24081;-71
2022/12/09 02:16:52;;;;;;;29.40;16.70;;;-4.70;99.90;-5.90;99483;;;;580561;247;24116;-72
2022/12/09 02:19:38;;;;;;;24.13;16.83;;;-4.70;99.90;-6.00;99482;;;;571850;246;24086;-73
2022/12/09 02:22:09;;;;;;;23.00;14.97;;;-4.70;99.90;-6.00;99486;;;;571624;247;24060;-73
2022/12/09 02:24:40;;;;;;;21.23;14.57;;;-4.80;99.90;-6.10;99488;;;;571809;247;24098;-72
2022/12/09 02:27:23;;;;;;;23.37;14.63;;;-5.00;99.90;-6.20;99484;;;;571413;247;24117;-73
2022/12/09 02:30:12;;;;;;;21.40;14.80;;;-5.00;99.90;-6.30;99485;;;;570847;247;24100;-74
2022/12/09 02:32:48;;;;;;;23.30;15.47;;;-5.10;99.90;-6.40;99474;;;;580701;247;24118;-74
2022/12/09 02:35:19;;;;;;;22.67;16.03;;;-5.10;99.90;-6.40;99474;;;;572362;247;24095;-74
2022/12/09 02:38:05;;;;;;;26.60;16.83;;;-5.20;99.90;-6.40;99478;;;;571980;247;24117;-74
2022/12/09 02:40:38;;;;;;;23.37;15.63;;;-5.20;99.90;-6.50;99488;;;;572390;247;24092;-73
2022/12/09 02:43:10;;;;;;;26.40;17.00;;;-5.30;99.90;-6.50;99493;;;;572727;246;24086;-73
2022/12/09 02:45:37;;;;;;;26.37;16.27;;;-5.30;99.90;-6.50;99494;;;;572735;246;24077;-72
2022/12/09 02:48:02;;;;;;;25.73;16.23;;;-5.30;99.90;-6.60;99496;;;;572548;247;24069;-72
2022/12/09 02:50:31;;;;;;;27.70;17.07;;;-5.40;99.90;-6.60;99487;;;;581477;247;24124;-73
2022/12/09 02:52:59;;;;;;;29.80;18.27;;;-5.40;99.90;-6.60;99495;;;;572363;247;24051;-74
2022/12/09 02:55:27;;;;;;;30.77;19.10;;;-5.40;99.90;-6.60;99498;;;;572616;247;24071;-73
2022/12/09 02:57:55;;;;;;;35.03;21.33;;;-5.40;99.90;-6.70;99507;;;;578261;247;24155;-73
2022/12/09 03:00:23;;;;;;;38.50;22.87;;;-5.40;99.90;-6.70;99497;;;;572551;247;24088;-74
2022/12/09 03:02:51;;;;;;;33.60;19.97;;;-5.50;99.90;-6.70;99501;;;;572458;247;24059;-74
2022/12/09 03:05:25;;;;;;;33.77;20.63;;;-5.50;99.90;-6.60;99493;;;;572414;247;24066;-73
2022/12/09 03:08:30;;;;;;;32.67;19.40;;;-5.40;99.90;-6.60;99493;;;;572525;247;24064;-72
2022/12/09 03:11:04;;;;;;;39.10;20.50;;;-5.40;99.90;-6.60;99495;;;;572486;247;24094;-74
2022/12/09 03:13:53;;;;;;;34.37;18.83;;;-5.40;99.90;-6.60;99497;;;;577624;245;24069;-72
2022/12/09 03:16:35;;;;;;;35.90;20.37;;;-5.40;99.90;-6.70;99501;;;;571764;247;24066;-74
2022/12/09 03:19:09;;;;;;;34.70;20.67;;;-5.50;99.90;-6.70;99508;;;;571979;247;24132;-73
2022/12/09 03:21:37;;;;;;;42.03;22.92;;;-5.50;99.90;-6.70;99502;;;;575518;247;35191;-74
2022/12/09 03:24:08;;;;;;;36.70;21.47;;;-5.50;99.90;-6.70;99494;;;;580228;247;24107;-73
2022/12/09 03:26:36;;;;;;;48.50;22.50;;;-5.50;99.90;-6.70;99493;;;;571756;247;24096;-73
2022/12/09 03:29:04;;;;;;;39.37;21.10;;;-5.50;99.90;-6.70;99494;;;;572053;247;24109;-74
2022/12/09 03:31:38;;;;;;;39.50;21.93;;;-5.40;99.90;-6.70;99502;;;;571719;247;24176;-71
2022/12/09 03:34:03;;;;;;;38.07;19.80;;;-5.50;99.90;-6.70;99512;;;;571807;247;24171;-72
2022/12/09 03:36:32;;;;;;;38.93;20.03;;;-5.50;99.90;-6.60;99509;;;;572022;247;24170;-72
2022/12/09 03:39:00;;;;;;;40.30;20.83;;;-5.40;99.90;-6.60;99506;;;;580079;247;24092;-73
2022/12/09 03:41:31;;;;;;;40.87;20.83;;;-5.40;99.90;-6.60;99505;;;;572115;247;24079;-72
2022/12/09 03:44:08;;;;;;;39.63;21.03;;;-5.40;99.90;-6.60;99507;;;;572824;247;24060;-73
2022/12/09 03:46:36;;;;;;;36.47;19.87;;;-5.30;99.90;-6.60;99501;;;;577783;247;24102;-74
2022/12/09 03:49:04;;;;;;;31.13;20.17;;;-5.40;99.90;-6.70;99506;;;;572382;247;24077;-73
2022/12/09 03:51:44;;;;;;;31.90;19.87;;;-5.40;99.90;-6.70;99505;;;;572941;247;24095;-72
2022/12/09 03:54:13;;;;;;;33.57;18.67;;;-5.40;99.90;-6.80;99508;;;;567528;246;24092;-75
2022/12/09 03:56:45;;;;;;;39.20;22.02;;;-5.50;99.90;-6.80;99508;;;;568835;246;46679;-75
2022/12/09 03:59:09;;;;;;;28.63;19.57;;;-5.50;99.90;-6.80;99525;;;;573723;247;24109;-75
2022/12/09 04:01:37;;;;;;;34.67;21.00;;;-5.60;99.90;-6.80;99519;;;;582557;247;24112;-75
2022/12/09 04:04:08;;;;;;;33.37;19.57;;;-5.60;99.90;-6.90;99512;;;;573344;247;24050;-76
2022/12/09 04:06:33;;;;;;;30.03;19.33;;;-5.60;99.90;-7.00;99506;;;;573275;247;24122;-73
2022/12/09 04:09:01;;;;;;;31.67;19.63;;;-5.70;99.90;-7.00;99516;;;;573210;247;24068;-74
2022/12/09 04:11:29;;;;;;;33.87;20.10;;;-5.70;99.90;-7.10;99511;;;;581993;247;24107;-73
2022/12/09 04:13:57;;;;;;;32.77;18.97;;;-5.80;99.90;-7.00;99511;;;;581370;243;24102;-76
2022/12/09 04:16:27;;;;;;;32.37;18.90;;;-5.80;99.90;-7.00;99509;;;;572547;247;24079;-75
2022/12/09 04:18:52;;;;;;;31.27;19.47;;;-5.80;99.90;-7.10;99514;;;;572306;247;24112;-73
2022/12/09 04:21:21;;;;;;;30.10;19.60;;;-5.80;99.90;-7.10;99517;;;;572580;247;24080;-73
2022/12/09 04:23:49;;;;;;;30.07;17.67;;;-5.90;99.90;-7.10;99514;;;;572992;247;24053;-73
2022/12/09 04:26:17;;;;;;;29.40;18.00;;;-5.80;99.90;-7.10;99530;;;;573046;247;24102;-73
2022/12/09 04:28:45;;;;;;;30.87;17.83;;;-5.90;99.90;-7.10;99522;;;;572872;247;24091;-77
2022/12/09 04:31:13;;;;;;;30.13;17.67;;;-5.90;99.90;-7.10;99520;;;;572488;247;24171;-73
2022/12/09 04:33:43;;;;;;;27.40;16.40;;;-5.90;99.90;-7.20;99530;;;;572768;247;24087;-73
2022/12/09 04:36:09;;;;;;;26.80;16.80;;;-5.90;99.90;-7.30;99522;;;;580833;247;24073;-74
2022/12/09 04:38:36;;;;;;;27.30;16.97;;;-6.00;99.90;-7.30;99533;;;;571957;247;24070;-78
2022/12/09 04:41:04;;;;;;;27.50;17.87;;;-6.00;99.90;-7.30;99531;;;;572015;247;24058;-73
2022/12/09 04:43:32;;;;;;;25.53;15.60;;;-6.00;99.90;-7.30;99527;;;;572309;247;24120;-74
2022/12/09 04:46:03;;;;;;;30.70;17.40;;;-6.10;99.90;-7.30;99529;;;;572152;247;24158;-78
2022/12/09 04:48:31;;;;;;;28.30;17.33;;;-6.00;99.90;-7.30;99529;;;;571596;247;24069;-75
2022/12/09 04:50:59;;;;;;;31.97;18.77;;;-6.10;99.90;-7.30;99535;;;;572293;247;24050;-78
2022/12/09 04:53:27;;;;;;;32.23;18.50;;;-6.00;99.90;-7.30;99533;;;;572198;247;24230;-80
2022/12/09 04:56:04;;;;;;;29.70;18.07;;;-6.00;99.90;-7.40;99545;;;;572255;247;24056;-75
2022/12/09 04:58:32;;;;;;;27.37;17.37;;;-6.10;99.90;-7.40;99542;;;;580404;247;24075;-73
2022/12/09 05:01:00;;;;;;;30.57;17.53;;;-6.10;99.90;-7.40;99549;;;;572371;247;24035;-75
2022/12/09 05:03:29;;;;;;;29.90;19.03;;;-6.10;99.90;-7.40;99552;;;;572281;247;24061;-74
2022/12/09 05:05:57;;;;;;;28.87;18.27;;;-6.10;99.90;-7.30;99546;;;;573043;246;24063;-73
2022/12/09 05:08:25;;;;;;;34.17;20.47;;;-6.10;99.90;-7.20;99550;;;;573461;246;24063;-74
2022/12/09 05:10:53;;;;;;;36.33;21.10;;;-6.00;99.90;-7.20;99547;;;;573152;247;24128;-76
2022/12/09 05:13:21;;;;;;;37.17;23.10;;;-5.90;99.90;-7.10;99547;;;;572897;247;24128;-80
2022/12/09 05:15:49;;;;;;;43.43;24.97;;;-5.80;99.90;-7.00;99548;;;;572473;247;24040;-81
2022/12/09 05:18:18;;;;;;;40.53;24.33;;;-5.80;99.90;-6.90;99543;;;;572743;247;24047;-80
2022/12/09 05:20:46;;;;;;;40.80;23.33;;;-5.70;99.90;-6.80;99546;;;;572924;247;24080;-75
2022/12/09 05:23:14;;;;;;;42.97;23.40;;;-5.60;99.90;-6.70;99546;;;;575622;247;24087;-73
2022/12/09 05:25:42;;;;;;;38.97;24.47;;;-5.40;99.90;-6.60;99556;;;;572657;247;24182;-75
2022/12/09 05:28:10;;;;;;;38.43;23.47;;;-5.40;99.90;-6.50;99551;;;;572845;247;24095;-76
2022/12/09 05:30:38;;;;;;;38.60;25.63;;;-5.30;99.90;-6.50;99552;;;;572245;247;24140;-79
2022/12/09 05:33:06;;;;;;;34.33;22.13;;;-5.20;99.90;-6.40;99565;;;;571959;247;24254;-78
2022/12/09 05:35:34;;;;;;;36.57;23.13;;;-5.20;99.90;-6.40;99554;;;;572405;247;24108;-76
2022/12/09 05:38:02;;;;;;;36.23;22.07;;;-5.20;99.90;-6.40;99556;;;;572061;247;24080;-77
2022/12/09 05:40:30;;;;;;;34.33;20.73;;;-5.20;99.90;-6.40;99554;;;;572316;247;24135;-78
2022/12/09 05:42:58;;;;;;;32.10;20.93;;;-5.20;99.90;-6.40;99552;;;;571935;247;24100;-79
2022/12/09 05:45:26;;;;;;;36.67;23.10;;;-5.20;99.90;-6.50;99564;;;;571791;247;24088;-80
2022/12/09 05:47:54;;;;;;;52.07;31.30;;;-5.20;99.90;-6.50;99565;;;;571947;247;24198;-73
2022/12/09 05:50:22;;;;;;;64.73;38.03;;;-5.30;99.90;-6.60;99555;;;;571842;247;24050;-79
2022/12/09 05:52:52;;;;;;;59.90;36.10;;;-5.30;99.90;-6.60;99557;;;;572510;247;24061;-74
2022/12/09 05:55:20;;;;;;;52.70;32.10;;;-5.40;99.90;-6.70;99554;;;;572849;247;24084;-79
2022/12/09 05:57:48;;;;;;;41.13;25.00;;;-5.40;99.90;-6.70;99561;;;;572726;247;24096;-82
2022/12/09 06:00:16;;;;;;;40.03;22.53;;;-5.50;99.90;-6.70;99556;;;;573173;247;24065;-77
2022/12/09 06:02:47;;;;;;;34.27;20.50;;;-5.50;99.90;-6.70;99554;;;;581127;247;24094;-73
2022/12/09 06:05:14;;;;;;;34.80;20.60;;;-5.50;99.90;-6.80;99563;;;;572566;247;24096;-72
2022/12/09 06:07:43;;;;;;;32.13;19.97;;;-5.60;99.90;-6.80;99557;;;;572187;247;24050;-80
2022/12/09 06:10:10;;;;;;;32.77;19.53;;;-5.60;99.90;-6.80;99561;;;;572326;247;24070;-73
2022/12/09 06:12:38;;;;;;;30.63;19.30;;;-5.60;99.90;-6.90;99562;;;;572298;243;24109;-75
2022/12/09 06:15:07;;;;;;;31.93;19.80;;;-5.70;99.90;-7.00;99564;;;;572138;247;24054;-74
2022/12/09 06:17:34;;;;;;;27.63;16.73;;;-5.70;99.90;-7.00;99569;;;;572976;246;24191;-74
2022/12/09 06:20:02;;;;;;;28.20;17.80;;;-5.80;99.90;-7.10;99561;;;;573311;246;24087;-75
2022/12/09 06:22:30;;;;;;;28.40;16.90;;;-5.80;99.90;-7.10;99572;;;;572978;247;24088;-74
2022/12/09 06:24:58;;;;;;;27.87;17.00;;;-5.90;99.90;-7.10;99572;;;;573109;247;24074;-73
2022/12/09 06:27:26;;;;;;;30.23;18.90;;;-5.90;99.90;-7.20;99580;;;;572895;247;24048;-73
2022/12/09 06:29:54;;;;;;;33.63;21.43;;;-5.90;99.90;-7.10;99582;;;;572908;247;24088;-75
2022/12/09 06:32:22;;;;;;;28.67;18.63;;;-5.90;99.90;-7.20;99575;;;;572722;247;24118;-74
2022/12/09 06:34:50;;;;;;;30.83;18.33;;;-5.90;99.90;-7.20;99576;;;;573087;247;24042;-73
2022/12/09 06:37:17;;;;;;;26.00;17.13;;;-6.00;99.90;-7.30;99584;;;;573018;247;24135;-73
2022/12/09 06:39:48;;;;;;;24.47;16.40;;;-6.00;99.90;-7.30;99582;;;;572969;247;24081;-72
2022/12/09 06:42:13;;;;;;;25.30;15.63;;;-6.10;99.90;-7.30;99588;;;;572973;247;25164;-72
2022/12/09 06:44:41;;;;;;;25.10;15.97;;;-6.10;99.90;-7.40;99587;;;;573286;247;24142;-73
2022/12/09 06:47:11;;;;;;;26.77;15.60;;;-6.10;99.90;-7.40;99597;;;;573181;247;24107;-75
2022/12/09 06:49:39;;;;;;;22.93;15.77;;;-6.10;99.90;-7.40;99594;;;;573196;247;24079;-73
2022/12/09 06:52:07;;;;;;;29.03;17.27;;;-6.10;99.90;-7.40;99609;;;;573323;247;24066;-76
2022/12/09 06:54:37;;;;;;;23.27;15.47;;;-6.20;99.90;-7.40;99600;;;;573157;247;24087;-73
2022/12/09 06:57:05;;;;;;;24.37;14.87;;;-6.20;99.90;-7.40;99598;;;;572203;247;24102;-73
2022/12/09 06:59:34;;;;;;;21.97;14.13;;;-6.10;99.90;-7.40;99592;;;;572285;247;24050;-72
2022/12/09 07:02:02;;;;;;;23.43;14.93;;;-6.10;99.90;-7.40;99600;;;;572029;247;24066;-72
2022/12/09 07:04:30;;;;;;;23.07;14.13;;;-6.10;99.90;-7.40;99608;;;;580747;247;24088;-73
2022/12/09 07:06:58;;;;;;;22.97;14.07;;;-6.10;99.90;-7.40;99607;;;;572024;247;24042;-73
2022/12/09 07:09:26;;;;;;;22.53;15.17;;;-6.10;99.90;-7.40;99607;;;;572198;247;24091;-72
2022/12/09 07:11:54;;;;;;;26.07;15.63;;;-6.20;99.90;-7.40;99597;;;;572187;247;24055;-72
2022/12/09 07:14:22;;;;;;;21.73;14.13;;;-6.20;99.90;-7.40;99603;;;;571908;247;24054;-73
2022/12/09 07:16:50;;;;;;;22.50;14.53;;;-6.20;99.90;-7.50;99599;;;;571845;247;24087;-73
2022/12/09 07:19:18;;;;;;;27.47;16.77;;;-6.20;99.90;-7.40;99588;;;;571517;247;24046;-73
2022/12/09 07:21:49;;;;;;;25.40;17.13;;;-6.20;99.90;-7.40;99587;;;;580421;247;24122;-73
2022/12/09 07:24:17;;;;;;;27.07;17.20;;;-6.10;99.90;-7.30;99588;;;;571521;247;24063;-73
2022/12/09 07:26:42;;;;;;;25.83;17.10;;;-6.10;99.90;-7.30;99589;;;;580084;247;24180;-73
2022/12/09 07:29:10;;;;;;;23.87;15.13;;;-6.00;99.90;-7.20;99592;;;;572570;246;24127;-73
2022/12/09 07:31:39;;;;;;;25.13;15.23;;;-5.90;99.90;-7.20;99600;;;;573225;246;24116;-75
2022/12/09 07:34:07;;;;;;;20.27;14.30;;;-6.00;99.90;-7.10;99591;;;;572802;247;24060;-73
2022/12/09 07:36:35;;;;;;;23.00;15.43;;;-5.90;99.90;-7.10;99593;;;;567577;247;46059;-73
2022/12/09 07:39:06;;;;;;;24.07;15.23;;;-5.80;99.90;-7.10;99596;;;;574992;247;24057;-73
2022/12/09 07:41:36;;;;;;;21.07;15.33;;;-5.80;99.90;-7.00;99601;;;;571840;247;24077;-74
2022/12/09 07:44:04;;;;;;;25.03;15.90;;;-5.80;99.90;-7.00;99602;;;;572275;247;24068;-74
2022/12/09 07:46:35;;;;;;;22.57;15.37;;;-5.70;99.90;-6.90;99611;;;;571931;247;24065;-76
2022/12/09 07:49:00;;;;;;;22.13;15.23;;;-5.70;99.90;-6.90;99614;;;;572074;247;24138;-74
2022/12/09 07:51:28;;;;;;;22.20;15.23;;;-5.60;99.90;-6.90;99600;;;;571851;247;24090;-74
2022/12/09 07:53:55;;;;;;;22.87;16.73;;;-5.60;99.90;-6.80;99610;;;;571822;247;24087;-73
2022/12/09 07:56:23;;;;;;;28.73;16.50;;;-5.60;99.90;-6.70;99602;;;;576373;247;24058;-71
2022/12/09 07:58:52;;;;;;;27.80;17.40;;;-5.50;99.90;-6.70;99595;;;;572235;247;24112;-72
2022/12/09 08:01:32;;;;;;;27.83;18.53;;;-5.40;99.90;-6.60;99598;;;;572157;247;24075;-73
2022/12/09 08:03:56;;;;;;;28.37;18.10;;;-5.40;99.90;-6.60;99609;;;;580650;247;24067;-73
2022/12/09 08:06:24;;;;;;;25.63;17.10;;;-5.40;99.90;-6.50;99604;;;;571943;247;24069;-73
2022/12/09 08:08:52;;;;;;;28.07;17.30;;;-5.30;99.90;-6.40;99608;;;;571912;247;24066;-72
2022/12/09 08:11:20;;;;;;;25.30;18.30;;;-5.30;99.90;-6.40;99607;;;;580718;247;25107;-72
2022/12/09 08:13:48;;;;;;;30.10;20.63;;;-5.20;99.90;-6.30;99615;;;;571224;247;24170;-72
2022/12/09 08:16:16;;;;;;;39.80;22.35;;;-5.10;99.90;-6.30;99613;;;;566622;247;46072;-73
2022/12/09 08:18:43;;;;;;;35.53;20.63;;;-5.10;99.90;-6.20;99615;;;;571695;247;24070;-73
2022/12/09 08:21:11;;;;;;;31.57;20.53;;;-5.00;99.90;-6.10;99620;;;;571496;247;24113;-73
2022/12/09 08:23:39;;;;;;;37.00;22.67;;;-5.00;99.90;-6.10;99613;;;;571566;247;24083;-73
2022/12/09 08:26:10;;;;;;;33.85;20.92;;;-4.90;99.90;-6.00;99616;;;;575669;247;35243;-74
2022/12/09 08:28:35;;;;;;;33.67;20.33;;;-4.80;99.90;-6.00;99612;;;;572417;247;24088;-73
2022/12/09 08:31:09;;;;;;;31.33;20.37;;;-4.70;99.90;-5.90;99628;;;;572812;247;24061;-73
2022/12/09 08:33:37;;;;;;;40.43;28.30;;;-4.70;99.90;-5.90;99625;;;;572684;247;24068;-74
2022/12/09 08:36:05;;;;;;;38.13;26.53;;;-4.60;99.90;-5.80;99624;;;;572630;247;24043;-72
2022/12/09 08:38:33;;;;;;;35.45;23.02;;;-4.60;99.90;-5.70;99624;;;;567310;247;35153;-77
2022/12/09 08:41:01;;;;;;;31.60;20.90;;;-4.60;99.90;-5.70;99623;;;;573757;246;24162;-77
2022/12/09 08:43:29;;;;;;;30.80;20.90;;;-4.50;99.90;-5.70;99628;;;;572950;246;24111;-73
2022/12/09 08:45:58;;;;;;;33.50;21.65;;;-4.40;99.90;-5.60;99631;;;;568469;247;35239;-74
2022/12/09 08:48:27;;;;;;;30.87;19.60;;;-4.40;99.90;-5.60;99623;;;;573448;247;24163;-81
2022/12/09 08:50:55;;;;;;;30.17;19.27;;;-4.40;99.90;-5.50;99619;;;;573586;247;24173;-75
2022/12/09 08:53:25;;;;;;;27.80;18.33;;;-4.30;99.90;-5.40;99627;;;;573000;247;24096;-76
2022/12/09 08:55:54;;;;;;;28.33;20.00;;;-4.20;99.90;-5.40;99629;;;;582479;247;24076;-76
2022/12/09 08:58:22;;;;;;;27.50;18.80;;;-4.20;99.90;-5.30;99636;;;;573670;247;24118;-80
2022/12/09 09:00:50;;;;;;;28.17;18.97;;;-4.20;99.90;-5.30;99629;;;;573493;247;24158;-79
2022/12/09 09:03:17;;;;;;;30.97;18.53;;;-4.10;99.90;-5.20;99633;;;;573556;247;24188;-77
2022/12/09 09:05:45;;;;;;;26.87;18.90;;;-4.10;99.90;-5.20;99632;;;;573397;247;24115;-77
2022/12/09 09:08:19;;;;;;;27.73;19.50;;;-4.00;99.90;-5.10;99639;;;;573786;247;24087;-75
2022/12/09 09:10:43;;;;;;;28.90;20.63;;;-3.90;99.90;-5.00;99630;;;;573171;246;24061;-81
2022/12/09 09:13:10;;;;;;;28.97;19.90;;;-3.90;99.90;-5.00;99625;;;;573487;247;24103;-81
2022/12/09 09:15:38;;;;;;;30.52;19.33;;;-3.80;99.90;-4.90;99629;;;;567937;247;35168;-73
2022/12/09 09:18:09;;;;;;;29.17;18.67;;;-3.80;99.90;-4.80;99632;;;;572721;247;24072;-73
2022/12/09 09:20:52;;;;;;;27.63;19.83;;;-3.70;99.90;-4.80;99629;;;;572451;247;24103;-75
2022/12/09 09:23:22;;;;;;;27.73;20.43;;;-3.60;99.90;-4.70;99628;;;;571810;247;24085;-74
2022/12/09 09:25:48;;;;;;;26.50;18.70;;;-3.60;99.90;-4.70;99629;;;;572201;247;24116;-73
2022/12/09 09:28:16;;;;;;;25.00;18.43;;;-3.50;99.90;-4.60;99627;;;;572529;247;24117;-74
2022/12/09 09:30:45;;;;;;;26.67;18.90;;;-3.40;99.90;-4.50;99630;;;;572687;247;24054;-79
2022/12/09 09:33:11;;;;;;;24.90;17.77;;;-3.40;99.90;-4.40;99631;;;;572905;247;24068;-74
2022/12/09 09:35:39;;;;;;;26.67;17.47;;;-3.30;99.90;-4.40;99630;;;;572461;247;24085;-76
2022/12/09 09:38:08;;;;;;;26.63;18.80;;;-3.20;99.90;-4.30;99630;;;;572455;247;24080;-76
2022/12/09 09:40:36;;;;;;;25.20;18.80;;;-3.20;99.90;-4.20;99628;;;;581159;247;24096;-75
2022/12/09 09:43:04;;;;;;;26.27;18.02;;;-3.10;99.90;-4.20;99617;;;;567048;247;35283;-77
2022/12/09 09:45:33;;;;;;;23.47;14.83;;;-3.00;99.90;-4.10;99626;;;;572850;247;24066;-79
2022/12/09 09:48:01;;;;;;;21.40;14.60;;;-3.00;99.90;-4.00;99626;;;;573024;247;24087;-74
2022/12/09 09:50:36;;;;;;;19.23;13.57;;;-2.80;99.90;-4.00;99629;;;;581446;247;24119;-74
2022/12/09 09:53:21;;;;;;;21.77;14.57;;;-2.90;99.90;-3.90;99626;;;;574257;246;24114;-73
2022/12/09 09:56:01;;;;;;;19.30;13.80;;;-2.80;99.90;-3.90;99621;;;;583147;246;24186;-73
2022/12/09 09:58:56;;;;;;;21.10;14.23;;;-2.70;99.90;-3.80;99623;;;;574914;247;24051;-76
2022/12/09 10:01:26;;;;;;;22.83;15.60;;;-2.70;99.90;-3.80;99628;;;;573597;247;24103;-72
2022/12/09 10:04:09;;;;;;;19.67;14.17;;;-2.70;99.90;-3.70;99631;;;;573297;247;24080;-77
2022/12/09 10:06:58;;;;;;;19.53;13.53;;;-2.60;99.90;-3.70;99635;;;;573397;247;24069;-74
2022/12/09 10:09:41;;;;;;;19.67;13.23;;;-2.60;99.90;-3.60;99635;;;;570590;247;24082;-74
2022/12/09 10:12:38;;;;;;;19.23;13.77;;;-2.50;99.90;-3.60;99636;;;;578475;247;24095;-74
2022/12/09 10:15:09;;;;;;;17.40;13.90;;;-2.40;99.90;-3.50;99632;;;;573133;247;24074;-73
2022/12/09 10:17:52;;;;;;;23.12;16.45;;;-2.40;99.90;-3.40;99631;;;;567468;247;46106;-73
2022/12/09 10:20:23;;;;;;;20.30;13.90;;;-2.30;99.90;-3.30;99633;;;;572595;247;24091;-72
2022/12/09 10:22:59;;;;;;;27.70;18.93;;;-2.30;99.90;-3.30;99637;;;;578014;247;24079;-72
2022/12/09 10:25:27;;;;;;;31.63;19.43;;;-2.20;99.90;-3.30;99634;;;;572846;247;24059;-72
2022/12/09 10:28:16;;;;;;;28.67;17.63;;;-2.20;99.90;-3.20;99623;;;;580739;247;24126;-76
2022/12/09 10:30:44;;;;;;;19.43;14.33;;;-2.10;99.90;-3.20;99632;;;;581121;247;24120;-73
2022/12/09 10:33:15;;;;;;;19.73;13.97;;;-2.00;99.90;-3.10;99643;;;;572374;247;24072;-71
2022/12/09 10:35:41;;;;;;;16.67;11.57;;;-2.10;99.90;-3.10;99627;;;;572051;247;24073;-73
2022/12/09 10:38:09;;;;;;;14.30;11.80;;;-2.00;99.90;-3.10;99635;;;;572357;247;24054;-72
2022/12/09 10:40:46;;;;;;;13.77;10.93;;;-2.00;99.90;-3.10;99636;;;;571903;247;24061;-74
2022/12/09 10:43:34;;;;;;;15.13;10.47;;;-2.00;99.90;-3.10;99631;;;;571766;247;25154;-75
2022/12/09 10:46:22;;;;;;;17.60;12.23;;;-2.00;99.90;-3.00;99630;;;;571462;247;24074;-73
2022/12/09 10:48:48;;;;;;;14.43;10.70;;;-2.00;99.90;-3.00;99631;;;;581359;247;24054;-77
2022/12/09 10:51:28;;;;;;;15.60;11.60;;;-1.90;99.90;-3.00;99635;;;;572670;247;24078;-72
2022/12/09 10:54:05;;;;;;;15.97;12.97;;;-2.00;99.90;-3.00;99646;;;;573086;247;24059;-74
2022/12/09 10:56:33;;;;;;;16.63;11.07;;;-1.90;99.90;-3.00;99645;;;;572556;247;24084;-73
2022/12/09 10:59:23;;;;;;;16.80;11.73;;;-1.90;99.90;-2.90;99645;;;;580620;247;24105;-75
2022/12/09 11:01:53;;;;;;;17.57;13.40;;;-1.90;99.90;-2.90;99632;;;;572302;247;24220;-73
2022/12/09 11:04:30;;;;;;;20.37;14.17;;;-1.80;99.90;-2.90;99639;;;;573818;246;24169;-78
2022/12/09 11:07:13;;;;;;;18.53;13.73;;;-1.80;99.90;-2.90;99640;;;;573067;246;24118;-75
2022/12/09 11:09:49;;;;;;;20.60;14.00;;;-1.80;99.90;-2.90;99649;;;;573526;247;24183;-74
2022/12/09 11:12:26;;;;;;;21.50;15.23;;;-1.80;99.90;-2.80;99657;;;;573902;247;24080;-75
2022/12/09 11:14:57;;;;;;;20.27;14.40;;;-1.80;99.90;-2.80;99653;;;;573901;247;24128;-72